createdAt,value
2022-10-20T00:01:31.789Z,8.23
2022-10-20T00:04:01.515Z,7.95
2022-10-20T00:06:33.678Z,7.45
2022-10-20T00:09:06.584Z,7.03
2022-10-20T00:11:36.710Z,7.60
2022-10-20T00:14:11.986Z,7.93
2022-10-20T00:16:42.654Z,8.32
2022-10-20T00:19:12.673Z,7.38
2022-10-20T00:21:42.273Z,7.75
2022-10-20T00:24:11.873Z,7.40
2022-10-20T00:26:41.412Z,7.65
2022-10-20T00:29:13.698Z,8.65
2022-10-20T00:31:43.471Z,7.85
2022-10-20T00:34:13.765Z,7.75
2022-10-20T00:36:46.308Z,7.35
2022-10-20T00:39:18.443Z,9.48
2022-10-20T00:41:48.125Z,8.48
2022-10-20T00:44:47.776Z,7.70
2022-10-20T00:47:23.617Z,7.47
2022-10-20T00:49:54.142Z,7.72
2022-10-20T00:52:25.636Z,8.63
2022-10-20T00:54:55.695Z,8.32
2022-10-20T00:57:25.639Z,7.70
2022-10-20T00:59:55.422Z,8.40
2022-10-20T01:02:27.745Z,8.77
2022-10-20T01:04:57.532Z,8.02
2022-10-20T01:07:27.247Z,7.70
2022-10-20T01:09:57.131Z,9.02
2022-10-20T01:12:37.069Z,8.70
2022-10-20T01:15:12.511Z,9.15
2022-10-20T01:17:54.990Z,9.23
2022-10-20T01:20:53.225Z,8.80
2022-10-20T01:23:43.528Z,9.30
2022-10-20T01:26:48.068Z,9.23
2022-10-20T01:29:29.918Z,9.13
2022-10-20T01:32:09.630Z,9.38
2022-10-20T01:34:47.989Z,10.23
2022-10-20T01:37:40.776Z,9.63
2022-10-20T01:40:29.557Z,9.85
2022-10-20T01:43:04.462Z,9.80
2022-10-20T01:45:41.473Z,8.57
2022-10-20T01:48:21.711Z,9.57
2022-10-20T01:50:52.975Z,9.70
2022-10-20T01:53:23.498Z,9.13
2022-10-20T01:55:54.667Z,9.85
2022-10-20T01:58:58.512Z,10.30
2022-10-20T02:01:44.052Z,11.27
2022-10-20T02:04:14.825Z,8.60
2022-10-20T02:06:51.978Z,11.15
2022-10-20T02:09:34.941Z,10.05
2022-10-20T02:12:10.796Z,10.75
2022-10-20T02:14:42.197Z,9.82
2022-10-20T02:17:18.252Z,9.25
2022-10-20T02:19:49.079Z,10.32
2022-10-20T02:22:23.044Z,10.05
2022-10-20T02:24:54.044Z,9.73
2022-10-20T02:27:27.844Z,10.95
2022-10-20T02:32:34.731Z,9.70
2022-10-20T02:35:07.387Z,10.20
2022-10-20T02:37:38.138Z,9.50
2022-10-20T02:40:09.086Z,10.65
2022-10-20T02:42:40.767Z,10.85
2022-10-20T02:45:12.536Z,11.55
2022-10-20T02:47:44.935Z,11.40
2022-10-20T02:50:14.968Z,11.30
2022-10-20T02:52:44.681Z,11.25
2022-10-20T02:55:14.315Z,10.77
2022-10-20T02:57:43.998Z,11.63
2022-10-20T03:00:15.427Z,11.77
2022-10-20T03:02:51.519Z,11.10
2022-10-20T03:05:21.213Z,11.55
2022-10-20T03:07:50.864Z,12.82
2022-10-20T03:10:20.686Z,11.38
2022-10-20T03:12:50.484Z,12.13
2022-10-20T03:15:20.321Z,11.82
2022-10-20T03:17:52.547Z,10.90
2022-10-20T03:20:22.118Z,12.02
2022-10-20T03:22:52.957Z,11.40
2022-10-20T03:25:23.042Z,10.18
2022-10-20T03:27:52.741Z,11.73
2022-10-20T03:30:24.132Z,14.98
2022-10-20T03:32:56.443Z,13.98
2022-10-20T03:35:26.054Z,12.38
2022-10-20T03:37:56.407Z,12.23
2022-10-20T03:40:26.204Z,11.10
2022-10-20T03:42:55.751Z,12.60
2022-10-20T03:45:25.553Z,13.32
2022-10-20T03:47:57.895Z,12.63
2022-10-20T03:50:27.720Z,12.02
2022-10-20T03:52:58.291Z,12.63
2022-10-20T03:55:27.927Z,13.48
2022-10-20T03:57:57.469Z,12.50
2022-10-20T04:00:27.164Z,14.32
2022-10-20T04:02:59.432Z,13.65
2022-10-20T04:05:29.062Z,13.60
2022-10-20T04:07:58.672Z,14.45
2022-10-20T04:10:28.951Z,14.30
2022-10-20T04:13:00.613Z,13.68
2022-10-20T04:15:30.358Z,15.77
2022-10-20T04:18:02.663Z,13.95
2022-10-20T04:20:32.346Z,14.40
2022-10-20T04:23:01.951Z,15.20
2022-10-20T04:25:31.568Z,13.70
2022-10-20T04:28:02.030Z,15.60
2022-10-20T04:30:31.761Z,13.85
2022-10-20T04:33:04.152Z,15.07
2022-10-20T04:35:33.901Z,14.98
2022-10-20T04:38:03.767Z,15.50
2022-10-20T04:40:33.517Z,14.48
2022-10-20T04:43:03.536Z,17.13
2022-10-20T04:45:33.277Z,16.52
2022-10-20T04:48:07.940Z,17.52
2022-10-20T04:50:37.736Z,16.10
2022-10-20T04:53:08.031Z,17.75
2022-10-20T04:55:38.190Z,17.85
2022-10-20T04:58:08.681Z,18.70
2022-10-20T05:00:41.758Z,14.73
2022-10-20T05:03:14.039Z,18.02
2022-10-20T05:05:43.785Z,17.80
2022-10-20T05:08:13.467Z,15.60
2022-10-20T05:10:43.611Z,16.50
2022-10-20T05:13:13.174Z,17.33
2022-10-20T05:15:42.833Z,16.05
2022-10-20T05:18:15.103Z,17.30
2022-10-20T05:21:07.296Z,16.63
2022-10-20T05:23:34.390Z,16.40
2022-10-20T05:26:05.595Z,15.63
2022-10-20T05:28:35.632Z,14.93
2022-10-20T05:31:05.597Z,14.57
2022-10-20T05:33:38.638Z,17.35
2022-10-20T05:36:12.568Z,15.75
2022-10-20T05:38:42.514Z,14.88
2022-10-20T05:41:14.706Z,15.75
2022-10-20T05:43:45.146Z,14.05
2022-10-20T05:46:14.851Z,14.38
2022-10-20T05:48:47.485Z,14.40
2022-10-20T05:51:20.543Z,16.52
2022-10-20T05:53:50.705Z,15.60
2022-10-20T05:56:22.133Z,15.15
2022-10-20T05:59:01.264Z,15.75
2022-10-20T06:01:39.968Z,15.13
2022-10-20T06:04:12.180Z,14.75
2022-10-20T06:06:45.498Z,15.00
2022-10-20T06:09:17.832Z,14.07
2022-10-20T06:11:49.516Z,16.25
2022-10-20T06:14:22.458Z,13.73
2022-10-20T06:16:56.999Z,15.23
2022-10-20T06:19:30.754Z,13.77
2022-10-20T06:24:37.319Z,15.50
2022-10-20T06:27:09.421Z,16.27
2022-10-20T06:29:41.520Z,14.40
2022-10-20T06:35:04.603Z,15.93
2022-10-20T06:37:34.189Z,14.57
2022-10-20T06:40:04.064Z,16.08
2022-10-20T06:42:34.320Z,15.45
2022-10-20T06:45:04.357Z,14.25
2022-10-20T06:47:34.411Z,14.98
2022-10-20T06:50:11.146Z,16.13
2022-10-20T06:52:43.809Z,16.60
2022-10-20T06:55:13.795Z,15.80
2022-10-20T06:57:43.568Z,15.98
2022-10-20T07:00:18.247Z,15.18
2022-10-20T07:02:48.215Z,14.80
2022-10-20T07:05:22.016Z,15.80
2022-10-20T07:10:21.576Z,14.27
2022-10-20T07:12:51.798Z,12.10
2022-10-20T07:15:21.468Z,16.98
2022-10-20T07:17:52.299Z,15.60
2022-10-20T07:20:25.753Z,15.10
2022-10-20T07:22:55.534Z,14.93
2022-10-20T07:25:25.165Z,14.38
2022-10-20T07:27:54.830Z,16.42
2022-10-20T07:30:24.455Z,17.17
2022-10-20T07:32:54.133Z,14.55
2022-10-20T07:35:26.399Z,15.93
2022-10-20T07:37:55.982Z,16.92
2022-10-20T07:43:15.741Z,15.30
2022-10-20T07:45:46.056Z,16.08
2022-10-20T07:48:16.252Z,15.18
2022-10-20T07:50:48.705Z,16.20
2022-10-20T07:55:52.738Z,14.73
2022-10-20T07:58:22.306Z,14.77
2022-10-20T08:00:52.048Z,15.35
2022-10-20T08:03:21.590Z,15.73
2022-10-20T08:05:53.813Z,15.88
2022-10-20T08:08:23.464Z,15.90
2022-10-20T08:10:53.074Z,16.30
2022-10-20T08:13:23.056Z,15.90
2022-10-20T08:15:55.442Z,15.23
2022-10-20T08:18:25.260Z,15.95
2022-10-20T08:20:57.438Z,15.07
2022-10-20T08:23:27.360Z,15.23
2022-10-20T08:25:58.623Z,16.20
2022-10-20T08:28:28.290Z,15.57
2022-10-20T08:30:57.895Z,16.45
2022-10-20T08:33:27.576Z,14.75
2022-10-20T08:36:04.626Z,16.05
2022-10-20T08:38:34.473Z,15.18
2022-10-20T08:41:04.551Z,16.23
2022-10-20T08:43:36.811Z,16.17
2022-10-20T08:46:07.596Z,15.77
2022-10-20T08:48:37.998Z,14.73
2022-10-20T08:51:17.835Z,15.82
2022-10-20T08:53:48.113Z,16.15
2022-10-20T08:56:19.204Z,14.48
2022-10-20T08:58:49.260Z,16.63
2022-10-20T09:01:27.918Z,15.80
2022-10-20T09:04:01.966Z,15.13
2022-10-20T09:09:32.021Z,14.93
2022-10-20T09:12:10.224Z,14.98
2022-10-20T09:14:41.626Z,15.23
2022-10-20T09:17:22.046Z,16.10
2022-10-20T09:19:58.128Z,15.85
2022-10-20T09:22:36.007Z,15.88
2022-10-20T09:25:11.770Z,15.02
2022-10-20T09:27:48.894Z,15.63
2022-10-20T09:30:37.610Z,15.18
2022-10-20T09:33:25.442Z,15.85
2022-10-20T09:36:12.149Z,13.98
2022-10-20T09:38:47.689Z,16.33
2022-10-20T09:41:24.121Z,15.25
2022-10-20T09:43:58.520Z,14.73
2022-10-20T09:46:31.317Z,14.27
2022-10-20T09:49:01.883Z,14.63
2022-10-20T09:51:36.513Z,13.93
2022-10-20T09:54:20.153Z,14.07
2022-10-20T09:56:57.550Z,14.38
2022-10-20T09:59:34.828Z,15.43
2022-10-20T10:02:35.201Z,15.57
2022-10-20T10:05:24.529Z,14.50
2022-10-20T10:08:02.094Z,14.85
2022-10-20T10:10:41.529Z,15.73
2022-10-20T10:13:25.318Z,15.43
2022-10-20T10:16:15.421Z,14.57
2022-10-20T10:19:02.143Z,14.88
2022-10-20T10:21:46.071Z,15.00
2022-10-20T10:24:36.232Z,15.23
2022-10-20T10:27:09.708Z,15.18
2022-10-20T10:29:39.486Z,14.43
2022-10-20T10:32:18.860Z,14.50
2022-10-20T10:35:08.003Z,14.48
2022-10-20T10:37:39.535Z,14.98
2022-10-20T10:40:18.854Z,14.07
2022-10-20T10:43:10.373Z,14.57
2022-10-20T10:45:54.315Z,14.73
2022-10-20T10:51:07.602Z,15.50
2022-10-20T10:53:53.008Z,15.88
2022-10-20T10:56:34.743Z,15.68
2022-10-20T10:59:14.008Z,15.23
2022-10-20T11:01:59.717Z,14.93
2022-10-20T11:04:51.914Z,15.02
2022-10-20T11:07:32.401Z,14.35
2022-10-20T11:10:10.810Z,15.02
2022-10-20T11:13:01.557Z,16.52
2022-10-20T11:15:54.939Z,15.50
2022-10-20T11:18:40.357Z,15.73
2022-10-20T11:21:22.930Z,14.93
2022-10-20T11:24:17.325Z,15.30
2022-10-20T11:26:52.251Z,15.60
2022-10-20T11:29:31.200Z,16.02
2022-10-20T11:32:11.744Z,15.15
2022-10-20T11:34:48.291Z,14.85
2022-10-20T11:37:26.066Z,16.23
2022-10-20T11:40:04.498Z,16.25
2022-10-20T11:42:45.072Z,15.38
2022-10-20T11:45:34.419Z,14.93
2022-10-20T11:48:15.573Z,15.48
2022-10-20T11:50:53.907Z,14.93
2022-10-20T11:53:42.549Z,14.25
2022-10-20T11:56:34.255Z,16.58
2022-10-20T11:59:43.945Z,14.85
2022-10-20T12:02:49.860Z,16.55
2022-10-20T12:05:38.129Z,16.20
2022-10-20T12:08:30.241Z,17.40
2022-10-20T12:11:08.790Z,15.23
2022-10-20T12:13:47.684Z,17.05
2022-10-20T12:16:47.442Z,17.40
2022-10-20T12:19:20.159Z,17.45
2022-10-20T12:22:03.879Z,18.30
2022-10-20T12:24:37.764Z,16.88
2022-10-20T12:27:20.858Z,18.65
2022-10-20T12:29:59.105Z,17.93
2022-10-20T12:32:58.469Z,18.67
2022-10-20T12:36:03.474Z,18.75
2022-10-20T12:38:35.949Z,18.05
2022-10-20T12:41:06.748Z,18.95
2022-10-20T12:43:47.535Z,20.75
2022-10-20T12:46:23.740Z,20.00
2022-10-20T12:49:00.256Z,18.92
2022-10-20T12:51:38.568Z,21.58
2022-10-20T12:54:22.049Z,18.75
2022-10-20T12:56:53.445Z,20.08
2022-10-20T12:59:49.680Z,19.80
2022-10-20T13:02:48.637Z,18.73
2022-10-20T13:05:44.872Z,19.35
2022-10-20T13:08:39.092Z,19.50
2022-10-20T13:14:16.693Z,18.23
2022-10-20T13:16:51.646Z,20.77
2022-10-20T13:19:34.670Z,19.70
2022-10-20T13:22:32.043Z,19.87
2022-10-20T13:25:03.259Z,19.42
2022-10-20T13:27:32.944Z,18.38
2022-10-20T13:30:10.152Z,18.77
2022-10-20T13:33:10.797Z,18.02
2022-10-20T13:35:45.057Z,17.60
2022-10-20T13:38:22.510Z,18.10
2022-10-20T13:41:05.209Z,17.13
2022-10-20T13:43:43.773Z,17.77
2022-10-20T13:46:27.007Z,18.00
2022-10-20T13:49:13.679Z,17.55
2022-10-20T13:51:46.965Z,17.00
2022-10-20T13:54:24.534Z,17.88
2022-10-20T13:56:54.983Z,17.17
2022-10-20T13:59:26.441Z,16.02
2022-10-20T14:02:01.295Z,15.82
2022-10-20T14:04:33.814Z,15.98
2022-10-20T14:07:08.511Z,16.13
2022-10-20T14:09:40.599Z,15.25
2022-10-20T14:12:22.205Z,15.90
2022-10-20T14:14:52.573Z,14.55
2022-10-20T14:17:27.473Z,14.32
2022-10-20T14:20:12.262Z,14.15
2022-10-20T14:22:46.768Z,13.90
2022-10-20T14:25:16.721Z,13.85
2022-10-20T14:27:51.541Z,14.60
2022-10-20T14:30:24.041Z,12.40
2022-10-20T14:32:57.508Z,11.63
2022-10-20T14:35:32.391Z,11.55
2022-10-20T14:38:05.753Z,12.27
2022-10-20T14:40:38.392Z,10.50
2022-10-20T14:43:15.092Z,10.60
2022-10-20T14:45:55.467Z,10.35
2022-10-20T14:48:32.704Z,10.73
2022-10-20T14:51:02.452Z,9.88
2022-10-20T14:53:36.148Z,10.23
2022-10-20T14:56:06.242Z,10.50
2022-10-20T14:58:39.982Z,11.63
2022-10-20T15:01:24.506Z,11.02
2022-10-20T15:04:17.139Z,11.98
2022-10-20T15:06:50.386Z,10.32
2022-10-20T15:09:25.528Z,11.52
2022-10-20T15:11:55.296Z,11.43
2022-10-20T15:14:25.018Z,10.88
2022-10-20T15:16:56.155Z,11.10
2022-10-20T15:19:38.117Z,11.57
2022-10-20T15:22:15.453Z,11.10
2022-10-20T15:24:45.191Z,10.82
2022-10-20T15:27:18.563Z,10.27
2022-10-20T15:29:52.603Z,10.75
2022-10-20T15:32:22.827Z,11.00
2022-10-20T15:34:55.374Z,10.30
2022-10-20T15:37:25.643Z,9.98
2022-10-20T15:39:55.351Z,10.50
2022-10-20T15:42:25.164Z,9.98
2022-10-20T15:44:54.785Z,11.43
2022-10-20T15:47:24.397Z,10.90
2022-10-20T15:49:56.665Z,10.27
2022-10-20T15:52:26.555Z,9.75
2022-10-20T15:54:56.239Z,9.55
2022-10-20T15:57:25.881Z,10.30
2022-10-20T15:59:55.669Z,11.30
2022-10-20T16:02:25.355Z,10.52
2022-10-20T16:04:57.604Z,9.98
2022-10-20T16:07:27.178Z,12.18
2022-10-20T16:09:56.786Z,10.30
2022-10-20T16:12:26.457Z,9.38
2022-10-20T16:14:55.978Z,10.10
2022-10-20T16:17:25.749Z,11.65
2022-10-20T16:19:58.086Z,9.90
2022-10-20T16:22:28.056Z,10.38
2022-10-20T16:25:01.388Z,9.95
2022-10-20T16:27:31.231Z,10.15
2022-10-20T16:30:01.116Z,9.90
2022-10-20T16:32:34.420Z,9.10
2022-10-20T16:35:09.047Z,10.50
2022-10-20T16:37:39.290Z,11.52
2022-10-20T16:40:10.297Z,10.85
2022-10-20T16:42:40.043Z,10.90
2022-10-20T16:45:11.345Z,9.27
2022-10-20T16:47:41.098Z,9.68
2022-10-20T16:50:13.619Z,9.07
2022-10-20T16:52:43.548Z,11.98
2022-10-20T16:55:13.672Z,9.68
2022-10-20T16:57:45.540Z,10.32
2022-10-20T17:00:16.867Z,10.45
2022-10-20T17:02:48.894Z,11.40
2022-10-20T17:05:26.393Z,11.45
2022-10-20T17:07:56.454Z,12.27
2022-10-20T17:10:26.109Z,9.90
2022-10-20T17:12:55.917Z,12.13
2022-10-20T17:15:25.596Z,12.13
2022-10-20T17:17:55.830Z,11.75
2022-10-20T17:20:28.465Z,12.35
2022-10-20T17:22:58.177Z,12.20
2022-10-20T17:25:27.788Z,11.30
2022-10-20T17:27:58.484Z,12.13
2022-10-20T17:30:29.500Z,13.88
2022-10-20T17:32:59.404Z,19.80
2022-10-20T17:35:32.019Z,28.17
2022-10-20T17:38:04.470Z,34.53
2022-10-20T17:40:38.900Z,26.02
2022-10-20T17:43:08.665Z,19.08
2022-10-20T17:45:38.419Z,15.07
2022-10-20T17:48:10.158Z,15.00
2022-10-20T17:50:42.439Z,14.57
2022-10-20T17:53:12.005Z,14.60
2022-10-20T17:55:41.623Z,15.32
2022-10-20T17:58:11.207Z,15.85
2022-10-20T18:00:55.411Z,16.00
2022-10-20T18:03:26.729Z,29.38
2022-10-20T18:05:59.384Z,24.83
2022-10-20T18:08:29.099Z,18.03
2022-10-20T18:10:58.800Z,19.20
2022-10-20T18:13:28.442Z,20.33
2022-10-20T18:15:58.079Z,21.20
2022-10-20T18:18:27.689Z,18.42
2022-10-20T18:21:00.413Z,21.10
2022-10-20T18:23:31.401Z,15.53
2022-10-20T18:26:07.679Z,16.73
2022-10-20T18:28:39.562Z,19.50
2022-10-20T18:31:14.850Z,19.85
2022-10-20T18:33:44.698Z,19.42
2022-10-20T18:36:21.662Z,15.48
2022-10-20T18:38:51.521Z,15.98
2022-10-20T18:41:22.925Z,16.98
2022-10-20T18:43:57.987Z,13.05
2022-10-20T18:46:28.546Z,15.23
2022-10-20T18:48:59.007Z,18.40
2022-10-20T18:51:31.462Z,15.45
2022-10-20T18:54:03.509Z,14.65
2022-10-20T18:56:33.585Z,15.55
2022-10-20T18:59:05.631Z,17.90
2022-10-20T19:01:37.337Z,18.30
2022-10-20T19:04:07.996Z,16.90
2022-10-20T19:06:42.276Z,17.02
2022-10-20T19:09:14.555Z,17.20
2022-10-20T19:11:45.123Z,19.23
2022-10-20T19:14:15.451Z,16.10
2022-10-20T19:16:47.205Z,16.92
2022-10-20T19:19:17.452Z,17.48
2022-10-20T19:21:49.811Z,17.85
2022-10-20T19:24:21.555Z,17.75
2022-10-20T19:27:02.220Z,14.73
2022-10-20T19:29:38.183Z,16.33
2022-10-20T19:32:08.713Z,17.75
2022-10-20T19:34:40.443Z,16.38
2022-10-20T19:37:13.173Z,15.20
2022-10-20T19:39:45.108Z,16.52
2022-10-20T19:42:14.821Z,17.15
2022-10-20T19:44:45.532Z,15.23
2022-10-20T19:47:15.964Z,15.95
2022-10-20T19:49:45.590Z,16.13
2022-10-20T19:52:18.734Z,16.30
2022-10-20T19:54:48.288Z,17.75
2022-10-20T19:57:17.910Z,15.43
2022-10-20T19:59:50.722Z,18.23
2022-10-20T20:02:20.436Z,19.77
2022-10-20T20:04:50.451Z,22.33
2022-10-20T20:07:22.962Z,19.45
2022-10-20T20:09:53.045Z,15.30
2022-10-20T20:12:22.632Z,16.95
2022-10-20T20:14:52.336Z,15.77
2022-10-20T20:17:22.098Z,16.08
2022-10-20T20:19:51.761Z,17.17
2022-10-20T20:22:23.987Z,18.00
2022-10-20T20:24:53.787Z,15.05
2022-10-20T20:27:23.572Z,17.02
2022-10-20T20:29:53.303Z,16.88
2022-10-20T20:32:22.874Z,21.75
2022-10-20T20:34:53.005Z,16.73
2022-10-20T20:37:25.838Z,16.00
2022-10-20T20:39:55.715Z,17.67
2022-10-20T20:42:25.456Z,16.10
2022-10-20T20:44:55.462Z,17.48
2022-10-20T20:47:26.166Z,17.25
2022-10-20T20:49:56.604Z,16.17
2022-10-20T20:52:29.494Z,15.02
2022-10-20T20:55:00.006Z,14.38
2022-10-20T20:57:32.269Z,14.43
2022-10-20T21:00:02.041Z,15.15
2022-10-20T21:02:31.574Z,15.60
2022-10-20T21:05:01.192Z,15.30
2022-10-20T21:07:34.358Z,14.52
2022-10-20T21:10:04.217Z,14.80
2022-10-20T21:12:35.322Z,14.90
2022-10-20T21:15:05.292Z,15.27
2022-10-20T21:17:34.959Z,29.70
2022-10-20T21:20:04.800Z,17.45
2022-10-20T21:22:37.360Z,12.70
2022-10-20T21:25:08.102Z,13.53
2022-10-20T21:27:37.822Z,14.98
2022-10-20T21:30:08.244Z,14.45
2022-10-20T21:32:38.199Z,13.90
2022-10-20T21:35:08.503Z,12.07
2022-10-20T21:37:40.763Z,11.95
2022-10-20T21:40:11.597Z,12.40
2022-10-20T21:42:41.305Z,12.70
2022-10-20T21:45:15.394Z,12.18
2022-10-20T21:47:47.910Z,12.13
2022-10-20T21:50:17.709Z,12.57
2022-10-20T21:52:52.033Z,12.10
2022-10-20T21:55:21.729Z,11.40
2022-10-20T21:57:53.098Z,11.80
2022-10-20T22:00:23.968Z,11.60
2022-10-20T22:02:53.683Z,12.20
2022-10-20T22:05:23.264Z,11.70
2022-10-20T22:07:55.568Z,12.82
2022-10-20T22:10:25.127Z,12.73
2022-10-20T22:12:54.733Z,12.57
2022-10-20T22:15:24.693Z,12.05
2022-10-20T22:17:54.324Z,11.75
2022-10-20T22:20:24.105Z,12.05
2022-10-20T22:22:56.323Z,11.95
2022-10-20T22:25:26.133Z,12.02
2022-10-20T22:27:55.711Z,13.82
2022-10-20T22:30:25.376Z,13.13
2022-10-20T22:32:54.951Z,12.70
2022-10-20T22:35:24.687Z,12.10
2022-10-20T22:37:57.426Z,11.27
2022-10-20T22:40:27.366Z,12.38
2022-10-20T22:42:57.413Z,12.85
2022-10-20T22:45:27.406Z,12.85
2022-10-20T22:47:57.777Z,14.13
2022-10-20T22:50:27.589Z,12.60
2022-10-20T22:52:59.799Z,13.85
2022-10-20T22:55:29.551Z,11.75
2022-10-20T23:00:32.475Z,12.18
2022-10-20T23:03:02.222Z,10.80
2022-10-20T23:05:32.406Z,11.95
2022-10-20T23:08:04.739Z,11.95
2022-10-20T23:10:34.583Z,12.00
2022-10-20T23:13:04.137Z,12.82
2022-10-20T23:15:33.743Z,11.50
2022-10-20T23:18:03.422Z,12.73
2022-10-20T23:20:33.121Z,12.30
2022-10-20T23:23:05.275Z,11.95
2022-10-20T23:28:05.392Z,11.65
2022-10-20T23:30:35.209Z,11.85
2022-10-20T23:33:05.146Z,12.40
2022-10-20T23:35:37.954Z,12.00
2022-10-20T23:38:10.889Z,12.20
2022-10-20T23:40:40.558Z,12.00
2022-10-20T23:43:10.411Z,11.23
2022-10-20T23:45:39.975Z,13.52
2022-10-20T23:48:09.567Z,10.80
2022-10-20T23:50:39.178Z,12.25
2022-10-20T23:53:11.387Z,11.80
2022-10-20T23:55:41.050Z,11.68
2022-10-20T23:58:10.706Z,11.48
